Time;durP1;ratioP1;P1;durP2;ratioP2;P2;SDS_P1;SDS_P2;PMS_P1;PMS_P2;Temp;Humidity;BMP_temperature;BMP_pressure;BME280_temperature;BME280_humidity;BME280_pressure;Samples;Min_cycle;Max_cycle;Signal;HPM_P1;HPM_P2
2022/06/14 00:01:32;;;;;;;4.47;2.08;;;;;;;12.40;62.80;102338.47;5065808;28;20037;-85
2022/06/14 00:03:58;;;;;;;5.10;2.00;;;;;;;12.50;62.76;102340.03;5063980;28;20395;-85
2022/06/14 00:06:26;;;;;;;5.68;2.35;;;;;;;12.49;62.46;102336.47;5063887;28;20221;-85
2022/06/14 00:08:53;;;;;;;6.05;2.08;;;;;;;12.52;62.62;102327.56;5068670;28;20016;-85
2022/06/14 00:11:26;;;;;;;5.10;2.10;;;;;;;12.51;62.07;102339.97;5066198;28;20045;-85
2022/06/14 00:13:54;;;;;;;6.20;2.30;;;;;;;12.37;63.68;102346.53;5065722;28;20028;-85
2022/06/14 00:16:21;;;;;;;5.28;2.30;;;;;;;12.00;64.50;102334.09;5061833;28;20025;-85
2022/06/14 00:18:47;;;;;;;5.50;2.25;;;;;;;11.74;65.62;102332.84;5064411;28;20085;-85
2022/06/14 00:21:13;;;;;;;5.88;2.25;;;;;;;11.79;65.61;102343.34;5068155;28;20024;-85
2022/06/14 00:23:38;;;;;;;4.22;2.22;;;;;;;11.84;65.02;102338.84;5058368;28;20142;-85
2022/06/14 00:26:04;;;;;;;5.43;2.33;;;;;;;12.01;64.25;102335.84;5057307;28;20032;-85
2022/06/14 00:28:32;;;;;;;5.28;2.50;;;;;;;12.06;64.30;102338.38;5066454;28;20162;-85
2022/06/14 00:31:03;;;;;;;7.35;2.50;;;;;;;12.11;64.18;102336.50;5056508;28;20056;-85
2022/06/14 00:33:29;;;;;;;5.60;1.90;;;;;;;12.18;64.65;102336.34;5065531;28;20103;-86
2022/06/14 00:36:05;;;;;;;6.50;2.45;;;;;;;12.19;64.29;102334.56;5060805;28;20162;-85
2022/06/14 00:38:35;;;;;;;4.82;2.20;;;;;;;12.14;64.46;102336.44;5061128;28;20041;-85
2022/06/14 00:41:02;;;;;;;6.45;2.40;;;;;;;11.92;64.93;102342.22;5077651;28;20505;-85
2022/06/14 00:43:29;;;;;;;6.30;2.85;;;;;;;11.75;64.82;102333.75;5065323;28;20016;-85
2022/06/14 00:46:18;;;;;;;5.35;2.20;;;;;;;11.86;63.70;102331.75;5060298;28;21239;-85
2022/06/14 00:48:49;;;;;;;3.88;2.40;;;;;;;11.96;64.35;102337.72;5066382;28;20076;-85
2022/06/14 00:51:23;;;;;;;3.63;2.15;;;;;;;12.04;65.89;102332.25;5064791;28;20032;-85
2022/06/14 00:54:01;;;;;;;4.57;2.42;;;;;;;12.08;65.41;102331.28;5078752;28;20064;-85
2022/06/14 00:56:46;;;;;;;4.28;2.60;;;;;;;12.17;62.73;102331.94;5078633;28;20476;-85
2022/06/14 00:59:34;;;;;;;7.05;2.47;;;;;;;12.11;63.01;102326.75;5059665;28;20043;-85
2022/06/14 01:02:12;;;;;;;5.30;2.10;;;;;;;12.11;63.01;102325.91;5063670;28;20515;-85
2022/06/14 01:04:38;;;;;;;4.82;2.67;;;;;;;11.98;66.42;102312.03;5061873;28;20025;-85
2022/06/14 01:07:26;;;;;;;7.45;2.40;;;;;;;12.01;63.88;102319.94;5063843;28;20437;-85
2022/06/14 01:09:57;;;;;;;6.10;2.60;;;;;;;11.73;64.97;102317.84;5066889;28;20395;-86
2022/06/14 01:12:26;;;;;;;6.22;2.60;;;;;;;11.53;65.85;102321.84;5069434;28;20476;-85
2022/06/14 01:15:13;;;;;;;4.07;2.55;;;;;;;11.42;64.92;102314.09;5061263;28;20498;-85
2022/06/14 01:17:44;;;;;;;5.95;2.63;;;;;;;11.34;66.21;102316.91;5070251;28;20487;-85
2022/06/14 01:20:14;;;;;;;5.68;2.92;;;;;;;11.36;66.22;102319.50;5066563;28;20455;-85
2022/06/14 01:22:39;;;;;;;5.25;2.72;;;;;;;11.36;65.99;102322.16;5064433;28;20446;-86
2022/06/14 01:25:05;;;;;;;6.88;2.63;;;;;;;11.16;67.08;102323.41;5065676;28;20040;-85
2022/06/14 01:27:34;;;;;;;4.63;2.22;;;;;;;11.17;66.46;102311.06;5061508;28;20032;-85
2022/06/14 01:30:06;;;;;;;3.70;2.70;;;;;;;11.20;66.74;102319.81;5062853;28;20468;-85
2022/06/14 01:32:37;;;;;;;6.72;2.75;;;;;;;11.10;67.25;102312.97;5066675;28;20127;-85
2022/06/14 01:35:08;;;;;;;4.20;2.33;;;;;;;10.81;67.81;102317.88;5065858;28;20028;-85
2022/06/14 01:37:34;;;;;;;7.25;2.50;;;;;;;10.89;67.43;102313.34;5065413;28;20079;-85
2022/06/14 01:40:03;;;;;;;7.57;2.78;;;;;;;11.07;66.09;102322.72;5061985;28;20038;-85
2022/06/14 01:42:43;;;;;;;6.35;2.65;;;;;;;11.07;66.23;102323.59;5064051;28;20507;-85
2022/06/14 01:45:28;;;;;;;6.20;2.42;;;;;;;10.96;66.56;102313.22;5067123;28;20032;-84
2022/06/14 01:48:26;;;;;;;6.07;2.80;;;;;;;11.09;65.92;102310.31;5052934;28;20434;-85
2022/06/14 01:53:55;;;;;;;3.90;2.20;;;;;;;11.16;65.17;102304.88;5061729;28;20170;-84
2022/06/14 01:56:37;;;;;;;4.47;2.20;;;;;;;11.20;64.78;102298.63;5052113;28;20091;-85
2022/06/14 01:59:15;;;;;;;5.70;2.53;;;;;;;10.88;67.11;102303.66;5061617;28;20529;-85
2022/06/14 02:01:47;;;;;;;5.85;2.90;;;;;;;10.52;68.11;102306.03;5062442;28;20485;-85
2022/06/14 02:04:37;;;;;;;6.20;2.72;;;;;;;10.50;67.92;102302.56;5060900;28;20028;-85
2022/06/14 02:07:05;;;;;;;5.55;2.45;;;;;;;10.57;68.13;102308.59;5065354;28;20032;-85
2022/06/14 02:09:48;;;;;;;6.78;3.08;;;;;;;10.57;67.81;102304.19;5064042;28;20036;-85
2022/06/14 02:12:17;;;;;;;4.63;2.83;;;;;;;10.42;68.16;102294.72;5065994;28;21060;-85
2022/06/14 02:14:56;;;;;;;8.70;2.70;;;;;;;10.47;68.10;102297.31;5059095;28;20071;-85
2022/06/14 02:17:31;;;;;;;5.38;2.45;;;;;;;10.56;68.15;102280.41;5064813;28;20063;-85
2022/06/14 02:20:02;;;;;;;7.13;2.72;;;;;;;10.65;67.50;102296.13;5056184;28;20365;-85
2022/06/14 02:22:38;;;;;;;4.72;2.70;;;;;;;10.51;67.98;102293.72;5064765;28;20056;-84
2022/06/14 02:25:14;;;;;;;7.65;3.00;;;;;;;10.45;67.65;102291.19;5063513;28;20035;-85
2022/06/14 02:27:53;;;;;;;5.43;2.80;;;;;;;10.50;67.37;102285.81;5067616;28;20107;-85
2022/06/14 02:30:24;;;;;;;7.47;2.55;;;;;;;10.59;67.74;102283.03;5063653;28;20028;-85
2022/06/14 02:33:23;;;;;;;10.75;2.50;;;;;;;10.73;66.71;102279.22;5063375;28;20028;-85
2022/06/14 02:36:04;;;;;;;4.88;2.33;;;;;;;10.71;66.36;102278.38;5059868;28;20092;-85
2022/06/14 02:38:42;;;;;;;6.47;2.75;;;;;;;10.70;66.30;102281.03;5065312;28;20093;-85
2022/06/14 02:41:30;;;;;;;5.00;2.40;;;;;;;10.60;65.97;102279.47;5061935;28;20081;-84
2022/06/14 02:44:19;;;;;;;3.92;2.40;;;;;;;10.60;65.71;102272.41;5062851;28;20206;-85
2022/06/14 02:46:55;;;;;;;4.70;2.53;;;;;;;10.62;66.31;102267.94;5064414;28;20051;-84
2022/06/14 02:49:28;;;;;;;6.80;2.92;;;;;;;10.39;67.60;102264.81;5064198;28;20032;-84
2022/06/14 02:52:13;;;;;;;7.15;2.83;;;;;;;10.34;67.44;102266.66;5060928;28;20473;-85
2022/06/14 02:54:44;;;;;;;5.22;2.63;;;;;;;10.21;68.18;102266.84;5060413;28;20016;-84
2022/06/14 02:57:35;;;;;;;7.30;2.80;;;;;;;10.39;67.08;102264.81;5061509;28;20112;-84
2022/06/14 03:00:18;;;;;;;6.82;2.53;;;;;;;10.40;67.16;102271.88;5053628;28;20035;-84
2022/06/14 03:02:50;;;;;;;;;;;;;;;10.57;64.49;102274.22;5060273;28;20158;-84
2022/06/14 03:05:21;;;;;;;;;;;;;;;10.49;64.05;102279.63;5061701;28;19912;-84
2022/06/14 03:07:49;;;;;;;;;;;;;;;10.49;64.12;102279.63;5067305;28;20395;-84
2022/06/14 03:10:15;;;;;;;;;;;;;;;10.52;63.86;102276.94;5059308;28;20351;-84
2022/06/14 03:12:44;;;;;;;;;;;;;;;10.54;63.63;102283.09;5060327;28;19968;-84
2022/06/14 03:15:16;;;;;;;;;;;;;;;10.52;64.08;102270.78;5055411;28;20592;-84
2022/06/14 03:17:57;;;;;;;;;;;;;;;10.33;64.39;102279.00;5061136;28;19923;-84
2022/06/14 03:20:25;;;;;;;;;;;;;;;10.10;64.87;102271.41;5065658;28;19920;-84
2022/06/14 03:23:08;;;;;;;;;;;;;;;10.08;64.24;102275.84;5063689;28;19927;-84
2022/06/14 03:25:39;;;;;;;;;;;;;;;10.21;64.77;102276.53;5059094;28;20409;-85
2022/06/14 03:28:06;;;;;;;;;;;;;;;10.29;63.85;102279.97;5058856;28;20467;-84
2022/06/14 03:30:43;;;;;;;;;;;;;;;10.32;63.35;102271.13;5065081;28;20280;-84
2022/06/14 03:33:15;;;;;;;;;;;;;;;10.35;63.49;102276.34;5067244;28;19921;-84
2022/06/14 03:35:44;;;;;;;;;;;;;;;10.35;63.21;102279.88;5069362;28;19916;-84
2022/06/14 03:38:14;;;;;;;;;;;;;;;10.36;62.95;102278.09;5063344;28;20561;-84
2022/06/14 03:40:41;;;;;;;;;;;;;;;10.40;62.98;102283.31;5068612;28;19912;-84
2022/06/14 03:43:06;;;;;;;;;;;;;;;10.31;63.35;102286.13;5066365;28;20421;-84
2022/06/14 03:45:35;;;;;;;;;;;;;;;10.17;63.29;102281.00;5067246;28;19913;-84
2022/06/14 03:48:02;;;;;;;;;;;;;;;10.05;62.80;102277.66;5061433;28;19916;-84
2022/06/14 03:50:38;;;;;;;;;;;;;;;9.85;64.97;102273.56;5067517;28;19916;-84
2022/06/14 03:53:29;;;;;;;;;;;;;;;9.73;64.28;102278.13;5070052;28;20325;-84
2022/06/14 03:56:13;;;;;;;;;;;;;;;9.67;64.41;102269.41;5047781;28;20558;-84
2022/06/14 03:58:57;;;;;;;;;;;;;;;9.79;64.09;102270.09;5065193;28;19916;-84
2022/06/14 04:01:30;;;;;;;;;;;;;;;9.90;63.13;102276.13;5067384;28;19986;-84
2022/06/14 04:03:58;;;;;;;;;;;;;;;9.78;65.23;102274.50;5070499;28;20157;-84
2022/06/14 04:06:29;;;;;;;;;;;;;;;9.68;64.11;102279.06;5065125;28;19912;-84
2022/06/14 04:09:13;;;;;;;;;;;;;;;9.76;64.30;102280.72;5062571;28;19920;-84
2022/06/14 04:11:57;;;;;;;;;;;;;;;9.80;64.23;102283.31;5065162;28;19924;-84
2022/06/14 04:14:22;;;;;;;;;;;;;;;9.92;63.58;102284.88;5061103;28;20388;-84
2022/06/14 04:16:50;;;;;;;;;;;;;;;10.04;63.08;102283.84;5066320;28;19994;-84
2022/06/14 04:19:18;;;;;;;;;;;;;;;10.18;62.48;102290.69;5065772;28;19912;-84
2022/06/14 04:22:01;;;;;;;;;;;;;;;10.30;62.21;102292.28;5066340;28;19917;-84
2022/06/14 04:24:37;;;;;;;;;;;;;;;10.24;62.81;102287.09;5071565;28;19912;-84
2022/06/14 04:27:10;;;;;;;;;;;;;;;10.27;62.88;102299.41;5063746;28;20402;-84
2022/06/14 04:29:35;;;;;;;;;;;;;;;10.16;63.48;102291.56;5065800;28;19917;-84
2022/06/14 04:32:07;;;;;;;;;;;;;;;10.09;63.98;102290.81;5069980;28;19994;-84
2022/06/14 04:34:41;;;;;;;;;;;;;;;10.15;63.48;102293.34;5063297;28;19919;-84
2022/06/14 04:37:13;;;;;;;;;;;;;;;10.26;63.38;102297.63;5059919;28;19908;-84
2022/06/14 04:39:41;;;;;;;;;;;;;;;10.31;62.99;102298.47;5066769;28;20800;-84
2022/06/14 04:42:08;;;;;;;;;;;;;;;10.40;63.11;102298.31;5071158;28;19912;-84
2022/06/14 04:44:37;;;;;;;;;;;;;;;10.48;62.69;102296.41;5063612;28;19959;-84
2022/06/14 04:47:05;;;;;;;;;;;;;;;10.64;63.97;102294.38;5065636;28;19966;-84
2022/06/14 04:49:37;;;;;;;;;;;;;;;10.71;62.93;102296.88;5065500;28;19912;-84
2022/06/14 04:52:06;;;;;;;;;;;;;;;10.74;63.94;102295.97;5067735;28;20397;-84
2022/06/14 04:54:35;;;;;;;;;;;;;;;10.70;64.17;102294.28;5067050;28;19913;-84
2022/06/14 04:57:22;;;;;;;;;;;;;;;10.68;63.52;102294.31;5065047;28;19995;-84
2022/06/14 05:00:08;;;;;;;;;;;;;;;10.82;64.16;102290.53;5061965;28;19908;-84
2022/06/14 05:02:33;;;;;;;;;;;;;;;10.93;63.42;102289.44;5072487;28;19967;-84
2022/06/14 05:05:18;;;;;;;;;;;;;;;11.05;63.78;102296.28;5059550;28;20382;-84
2022/06/14 05:07:47;;;;;;;;;;;;;;;11.12;63.72;102295.25;5063186;28;19908;-84
2022/06/14 05:10:18;;;;;;;;;;;;;;;11.22;63.44;102288.00;5061691;28;19951;-84
2022/06/14 05:12:47;;;;;;;;;;;;;;;11.34;62.77;102289.56;5060777;28;19917;-84
2022/06/14 05:15:24;;;;;;;;;;;;;;;11.44;63.75;102291.09;5061366;28;20383;-84
2022/06/14 05:17:49;;;;;;;;;;;;;;;11.49;63.87;102294.53;5062822;28;19938;-84
2022/06/14 05:20:21;;;;;;;;;;;;;;;11.60;63.69;102303.13;5066425;28;19916;-84
2022/06/14 05:22:52;;;;;;;;;;;;;;;11.69;64.16;102297.63;5066915;28;20007;-84
2022/06/14 05:25:17;;;;;;;;;;;;;;;11.77;62.68;102300.13;5067006;28;19959;-84
2022/06/14 05:27:52;;;;;;;;;;;;;;;11.83;64.51;102307.09;5069592;28;19916;-84
2022/06/14 05:30:20;;;;;;;;;;;;;;;11.91;64.81;102302.50;5062978;28;19916;-84
2022/06/14 05:33:00;;;;;;;;;;;;;;;11.98;62.57;102305.00;5060780;28;19923;-84
2022/06/14 05:35:32;;;;;;;;;;;;;;;12.02;66.25;102303.13;5059987;28;19912;-84
2022/06/14 05:38:00;;;;;;;;;;;;;;;12.09;64.47;102304.75;5067413;28;19960;-84
2022/06/14 05:40:41;;;;;;;;;;;;;;;12.17;65.00;102305.44;5064907;28;19912;-84
2022/06/14 05:43:27;;;;;;;;;;;;;;;12.29;64.96;102301.59;5060091;28;19916;-84
2022/06/14 05:45:57;;;;;;;;;;;;;;;12.41;65.25;102306.63;5059755;28;19905;-84
2022/06/14 05:48:29;;;;;;;;;;;;;;;12.54;65.82;102308.97;5059680;28;19939;-84
2022/06/14 05:50:55;;;;;;;;;;;;;;;12.60;66.62;102306.19;5067073;28;19927;-84
2022/06/14 05:53:26;;;;;;;;;;;;;;;12.63;63.92;102303.44;5053908;28;19944;-84
2022/06/14 05:55:55;;;;;;;;;;;;;;;12.72;65.54;102306.72;5061630;28;19945;-84
2022/06/14 05:58:20;;;;;;;;;;;;;;;12.84;65.82;102308.19;5061624;28;19912;-84
2022/06/14 06:00:58;;;;;;;;;;;;;;;12.93;65.47;102307.09;5062133;28;20359;-84
2022/06/14 06:03:27;;;;;;;;;;;;;;;13.01;65.48;102305.09;5057963;28;20338;-84
2022/06/14 06:06:13;;;;;;;;;;;;;;;13.10;65.33;102309.28;5069350;28;19943;-84
2022/06/14 06:08:40;;;;;;;;;;;;;;;13.17;64.91;102316.16;5067147;28;20344;-84
2022/06/14 06:11:19;;;;;;;;;;;;;;;13.21;65.49;102316.03;5062889;28;19920;-84
2022/06/14 06:13:46;;;;;;;;;;;;;;;13.38;65.87;102317.38;5064770;28;19912;-84
2022/06/14 06:16:33;;;;;;;;;;;;;;;13.72;66.43;102318.16;5066760;28;19919;-84
2022/06/14 06:19:07;;;;;;;;;;;;;;;14.12;64.95;102319.59;5060041;28;20007;-84
2022/06/14 06:21:37;;;;;;;;;;;;;;;14.44;64.53;102323.88;5062264;28;20026;-84
2022/06/14 06:24:02;;;;;;;;;;;;;;;14.65;63.82;102322.34;5063880;28;19951;-84
2022/06/14 06:26:30;;;;;;;;;;;;;;;14.85;63.49;102326.13;5066051;28;19959;-84
2022/06/14 06:28:59;;;;;;;;;;;;;;;15.02;62.89;102329.09;5058314;28;19917;-84
2022/06/14 06:31:29;;;;;;;;;;;;;;;15.17;62.19;102325.00;5059837;28;19930;-84
2022/06/14 06:33:55;;;;;;;;;;;;;;;15.31;62.64;102322.72;5065186;28;19912;-83
2022/06/14 06:36:26;;;;;;;;;;;;;;;15.48;61.64;102320.31;5066093;28;20348;-83
2022/06/14 06:39:10;;;;;;;;;;;;;;;15.71;61.22;102323.91;5063695;28;20415;-84
2022/06/14 06:41:50;;;;;;;;;;;;;;;16.02;60.45;102321.81;5062768;28;20452;-83
2022/06/14 06:44:16;;;;;;;;;;;;;;;15.99;58.64;102324.63;5060382;28;20011;-83
2022/06/14 06:46:47;;;;;;;;;;;;;;;16.01;59.87;102336.09;5062353;28;19920;-84
2022/06/14 06:49:14;;;;;;;;;;;;;;;16.14;60.24;102330.28;5061104;28;19958;-83
2022/06/14 06:51:45;;;;;;;;;;;;;;;16.17;57.55;102328.34;5061513;28;19916;-84
2022/06/14 06:54:34;;;;;;;;;;;;;;;16.21;59.60;102329.97;5063088;28;20013;-84
2022/06/14 06:57:00;;;;;;;;;;;;;;;16.49;59.40;102326.19;5062587;28;19912;-84
2022/06/14 06:59:26;;;;;;;;;;;;;;;16.71;59.00;102318.16;5056416;28;20003;-84
2022/06/14 07:01:54;;;;;;;;;;;;;;;17.03;58.72;102320.34;5063384;28;20062;-84
2022/06/14 07:05:02;;;;;;;;;;;;;;;17.20;57.79;102318.72;5065302;28;19920;-84
2022/06/14 07:07:11;;;;;;;;;;;;;;;17.09;57.41;102320.06;5063746;28;19927;-84
2022/06/14 07:09:52;;;;;;;;;;;;;;;16.99;57.32;102313.38;5064001;28;19916;-84
2022/06/14 07:12:26;;;;;;;;;;;;;;;16.96;56.54;102316.19;5060934;28;19916;-84
2022/06/14 07:14:57;;;;;;;;;;;;;;;16.72;56.08;102327.91;5059022;28;19912;-84
2022/06/14 07:17:28;;;;;;;;;;;;;;;16.62;55.53;102319.41;5063040;28;19908;-84
2022/06/14 07:19:54;;;;;;;;;;;;;;;16.64;55.61;102328.19;5058002;28;19912;-84
2022/06/14 07:22:33;;;;;;;;;;;;;;;16.77;56.40;102328.59;5065789;28;19916;-84
2022/06/14 07:25:11;;;;;;;;;;;;;;;16.91;55.37;102325.34;5055302;28;19920;-84
2022/06/14 07:27:40;;;;;;;;;;;;;;;17.17;55.26;102321.53;5066159;28;20653;-84
2022/06/14 07:30:10;;;;;;;;;;;;;;;17.66;54.07;102314.81;5055288;28;19917;-84
2022/06/14 07:32:47;;;;;;;;;;;;;;;18.47;52.80;102320.81;5065324;28;19958;-84
2022/06/14 07:35:14;;;;;;;;;;;;;;;19.22;51.97;102314.31;5062705;28;20007;-84
2022/06/14 07:37:42;;;;;;;;;;;;;;;19.85;50.63;102312.63;5061048;28;19924;-84
2022/06/14 07:40:20;;;;;;;;;;;;;;;20.68;49.74;102318.66;5057117;28;19970;-85
2022/06/14 07:42:50;;;;;;;;;;;;;;;21.17;45.79;102317.50;5065184;28;19916;-85
2022/06/14 07:45:25;;;;;;;;;;;;;;;21.04;42.49;102314.72;5060778;28;19912;-85
2022/06/14 07:47:54;;;;;;;;;;;;;;;21.19;41.30;102308.41;5056335;28;19970;-84
2022/06/14 07:50:22;;;;;;;;;;;;;;;21.48;45.62;102312.00;5060632;28;20617;-85
2022/06/14 07:53:03;;;;;;;;;;;;;;;21.66;41.62;102309.97;5061571;28;20021;-84
2022/06/14 07:55:52;;;;;;;;;;;;;;;21.71;41.35;102305.16;5057254;28;19913;-84
2022/06/14 07:58:30;;;;;;;;;;;;;;;22.20;43.72;102311.94;5060831;28;20360;-84
2022/06/14 08:01:07;;;;;;;;;;;;;;;22.75;42.56;102319.00;5071151;28;19931;-84
2022/06/14 08:03:53;;;;;;;;;;;;;;;23.00;42.58;102308.31;5059979;28;20403;-85
2022/06/14 08:06:19;;;;;;;;;;;;;;;23.71;41.79;102311.44;5058808;28;20019;-85
2022/06/14 08:08:45;;;;;;;;;;;;;;;24.26;41.38;102318.19;5064703;28;19912;-84
2022/06/14 08:11:16;;;;;;;;;;;;;;;24.58;39.82;102307.69;5062754;28;19921;-85
2022/06/14 08:13:47;;;;;;;;;;;;;;;23.82;37.11;102309.66;5057679;28;19919;-85
2022/06/14 08:16:13;;;;;;;;;;;;;;;24.09;39.13;102308.63;5065007;28;19912;-85
2022/06/14 08:18:38;;;;;;;;;;;;;;;24.42;38.76;102302.56;5064751;28;20011;-86
2022/06/14 08:21:21;;;;;;;;;;;;;;;24.77;38.11;102299.88;5069652;28;20003;-86
2022/06/14 08:23:54;;;;;;;;;;;;;;;25.16;36.40;102300.47;5067500;28;19912;-86
2022/06/14 08:26:39;;;;;;;;;;;;;;;25.86;36.70;102294.84;5060602;28;19934;-85
2022/06/14 08:29:25;;;;;;;;;;;;;;;26.24;35.75;102298.06;5067509;28;19917;-87
2022/06/14 08:32:09;;;;;;;;;;;;;;;26.49;34.70;102294.16;5064203;28;19926;-86
2022/06/14 08:34:44;;;;;;;;;;;;;;;26.91;34.69;102293.22;5066596;28;19927;-87
2022/06/14 08:37:17;;;;;;;;;;;;;;;27.03;33.42;102296.72;5068628;28;19912;-88
2022/06/14 08:39:45;;;;;;;;;;;;;;;26.87;31.58;102289.06;5064769;28;19924;-86
2022/06/14 08:42:20;;;;;;;;;;;;;;;26.55;34.10;102291.81;5066185;28;19989;-86
2022/06/14 08:44:54;;;;;;;;;;;;;;;25.78;33.22;102288.31;5068337;28;19935;-86
2022/06/14 08:47:32;;;;;;;;;;;;;;;25.65;35.19;102288.44;5065315;28;20402;-86
2022/06/14 08:50:18;;;;;;;;;;;;;;;25.83;30.40;102291.50;5064569;28;20007;-87
2022/06/14 08:53:02;;;;;;;;;;;;;;;24.80;34.27;102294.22;5067895;28;20387;-87
2022/06/14 08:55:30;;;;;;;;;;;;;;;24.97;35.00;102284.78;5063178;28;19923;-87
2022/06/14 08:58:17;;;;;;;;;;;;;;;25.36;35.07;102288.91;5068015;28;20392;-87
2022/06/14 09:01:00;;;;;;;;;;;;;;;25.18;35.23;102288.56;5065001;28;19908;-87
2022/06/14 09:03:44;;;;;;;;;;;;;;;25.16;35.31;102285.09;5069542;28;19917;-87
2022/06/14 09:06:18;;;;;;;;;;;;;;;25.00;35.83;102284.56;5066986;28;19926;-87
2022/06/14 09:09:15;;;;;;;;;;;;;;;25.16;33.89;102285.09;5062631;28;20303;-87
2022/06/14 09:12:07;;;;;;;;;;;;;;;25.19;34.84;102286.72;5056951;28;19935;-86
2022/06/14 09:14:54;;;;;;;;;;;;;;;25.10;34.97;102291.00;5051614;28;19995;-87
2022/06/14 09:17:32;;;;;;;;;;;;;;;24.92;35.16;102292.41;5066388;28;19955;-87
2022/06/14 09:20:02;;;;;;;;;;;;;;;24.25;33.98;102281.31;5061321;28;19923;-87
2022/06/14 09:22:46;;;;;;;;;;;;;;;23.93;37.33;102288.16;5059863;28;19963;-87
2022/06/14 09:25:30;;;;;;;;;;;;;;;24.02;37.06;102283.91;5071171;28;19916;-88
2022/06/14 09:28:14;;;;;;;;;;;;;;;23.88;36.47;102281.38;5048938;28;19913;-88
2022/06/14 09:30:54;;;;;;;;;;;;;;;23.91;37.53;102275.72;5063791;28;20379;-87
2022/06/14 09:33:29;;;;;;;;;;;;;;;23.77;36.57;102279.44;5066362;28;19920;-88
2022/06/14 09:36:19;;;;;;;;;;;;;;;23.61;37.08;102284.19;5069059;28;20295;-87
2022/06/14 09:38:47;;;;;;;;;;;;;;;23.69;37.40;102273.75;5062832;28;19912;-88
2022/06/14 09:41:13;;;;;;;;;;;;;;;24.22;36.47;102268.91;5058054;28;20368;-87
2022/06/14 09:43:54;;;;;;;;;;;;;;;24.81;35.83;102274.31;5064155;28;19912;-87
2022/06/14 09:46:23;;;;;;;;;;;;;;;25.35;35.11;102273.66;5060791;28;20414;-86
2022/06/14 09:49:20;;;;;;;;;;;;;;;25.62;35.24;102261.59;5056513;28;20544;-87
2022/06/14 09:51:59;;;;;;;;;;;;;;;25.82;34.60;102259.97;5046514;28;19924;-88
2022/06/14 09:54:46;;;;;;;;;;;;;;;25.94;34.39;102258.97;5065251;28;19978;-88
2022/06/14 09:57:11;;;;;;;;;;;;;;;25.75;34.64;102254.19;5061595;28;20019;-87
2022/06/14 09:59:57;;;;;;;;;;;;;;;25.85;34.62;102254.31;5060658;28;20366;-88
2022/06/14 10:02:31;;;;;;;;;;;;;;;25.62;32.30;102239.94;5062196;28;19912;-88
2022/06/14 10:05:23;;;;;;;;;;;;;;;25.63;33.54;102253.34;5064760;28;19927;-88
2022/06/14 10:07:57;;;;;;;;;;;;;;;25.92;32.73;102244.69;5064947;28;20359;-89
2022/06/14 10:10:31;;;;;;;;;;;;;;;26.10;33.57;102243.16;5072629;28;19985;-87
2022/06/14 10:13:05;;;;;;;;;;;;;;;26.22;32.71;102245.84;5064448;28;20033;-90
2022/06/14 10:15:39;;;;;;;;;;;;;;;26.34;32.69;102251.06;5058080;28;19912;-88
2022/06/14 10:18:19;;;;;;;;;;;;;;;26.31;32.66;102245.91;5064543;28;20248;-88
2022/06/14 10:21:02;;;;;;;;;;;;;;;26.47;32.95;102236.50;5062295;28;19912;-88
2022/06/14 10:23:34;;;;;;;;;;;;;;;26.00;31.64;102235.91;5061423;28;19920;-88
2022/06/14 10:29:21;;;;;;;;;;;;;;;26.48;32.10;102232.78;5059927;28;20433;-88
2022/06/14 10:32:04;;;;;;;;;;;;;;;26.57;32.48;102229.28;5062757;28;19924;-88
2022/06/14 10:34:37;;;;;;;;;;;;;;;26.96;31.79;102225.81;5055241;28;19913;-88
2022/06/14 10:37:03;;;;;;;;;;;;;;;26.74;32.72;102217.84;5058206;28;19923;-89
2022/06/14 10:39:41;;;;;;;;;;;;;;;27.11;31.79;102218.22;5052504;28;19913;-88
2022/06/14 10:42:21;;;;;;;;;;;;;;;27.49;31.52;102211.19;5058226;28;20049;-88
2022/06/14 10:45:07;;;;;;;;;;;;;;;27.79;30.61;102202.13;5069892;28;19912;-88
2022/06/14 10:47:44;;;;;;;;;;;;;;;27.84;31.93;102210.75;5051319;28;19916;-88
2022/06/14 10:50:12;;;;;;;;;;;;;;;27.55;31.63;102209.78;5058747;28;19920;-88
2022/06/14 10:52:51;;;;;;;;;;;;;;;27.35;31.81;102207.00;5066174;28;19958;-87
2022/06/14 10:55:22;;;;;;;;;;;;;;;27.13;31.09;102201.78;5068277;28;20379;-88
2022/06/14 10:57:50;;;;;;;;;;;;;;;26.81;32.04;102196.44;5066032;28;19958;-88
2022/06/14 11:00:17;;;;;;;;;;;;;;;27.16;31.33;102198.78;5064508;28;20340;-88
2022/06/14 11:02:43;;;;;;;;;;;;;;;27.71;31.03;102189.25;5064535;28;19920;-88
2022/06/14 11:05:19;;;;;;;;;;;;;;;28.03;29.81;102199.03;5062342;28;19932;-88
2022/06/14 11:08:03;;;;;;;;;;;;;;;27.92;30.06;102191.84;5079170;28;19912;-89
2022/06/14 11:10:39;;;;;;;;;;;;;;;27.34;29.84;102189.00;5055000;28;20391;-88
2022/06/14 11:13:08;;;;;;;;;;;;;;;26.92;30.95;102185.53;5064679;28;20350;-88
2022/06/14 11:15:52;;;;;;;;;;;;;;;27.40;30.61;102185.72;5066757;28;19915;-88
2022/06/14 11:18:29;;;;;;;;;;;;;;;27.73;30.46;102180.97;5064616;28;19912;-89
2022/06/14 11:21:00;;;;;;;;;;;;;;;27.91;30.43;102178.41;5059341;28;20430;-88
2022/06/14 11:23:40;;;;;;;;;;;;;;;27.38;27.96;102178.72;5067187;28;20280;-89
2022/06/14 11:26:17;;;;;;;;;;;;;;;26.38;30.65;102181.16;5063851;28;19912;-89
2022/06/14 11:29:01;;;;;;;;;;;;;;;26.98;30.73;102176.81;5065615;28;19916;-89
2022/06/14 11:31:32;;;;;;;;;;;;;;;27.63;29.03;102169.19;5063601;28;19927;-89
2022/06/14 11:33:57;;;;;;;;;;;;;;;27.74;30.13;102177.22;5068249;28;20367;-89
2022/06/14 11:36:22;;;;;;;;;;;;;;;27.30;30.13;102165.84;5056826;28;19927;-89
2022/06/14 11:39:04;;;;;;;;;;;;;;;27.38;30.39;102157.84;5063842;28;19909;-90
2022/06/14 11:41:34;;;;;;;;;;;;;;;27.90;30.13;102158.53;5058445;28;19924;-89
2022/06/14 11:44:18;;;;;;;;;;;;;;;28.22;30.29;102149.22;5065558;28;19930;-89
2022/06/14 11:46:55;;;;;;;;;;;;;;;28.35;29.44;102149.78;5054660;28;20592;-90
2022/06/14 11:49:44;;;;;;;;;;;;;;;28.65;28.89;102147.84;5064537;28;20322;-89
2022/06/14 11:52:12;;;;;;;;;;;;;;;28.92;28.99;102144.31;5062495;28;19916;-89
2022/06/14 11:54:48;;;;;;;;;;;;;;;29.03;27.95;102148.72;5067037;28;20401;-89
2022/06/14 11:57:21;;;;;;;;;;;;;;;29.15;28.55;102142.09;5070647;28;20355;-89
2022/06/14 11:59:53;;;;;;;;;;;;;;;29.19;29.45;102144.34;5066714;28;19982;-89
2022/06/14 12:02:21;;;;;;;;;;;;;;;29.30;28.96;102135.13;5068951;28;19974;-89
2022/06/14 12:05:03;;;;;;;;;;;;;;;29.32;28.37;102143.13;5072711;28;19912;-89
2022/06/14 12:07:32;;;;;;;;;;;;;;;29.14;28.85;102140.34;5064623;28;20091;-88
2022/06/14 12:10:06;;;;;;;;;;;;;;;29.39;28.27;102144.25;5061560;28;19920;-88
2022/06/14 12:12:46;;;;;;;;;;;;;;;29.42;28.06;102146.63;5062816;28;20394;-88
2022/06/14 12:15:14;;;;;;;;;;;;;;;28.77;27.26;102133.03;5063584;28;19919;-88
2022/06/14 12:17:43;;;;;;;;;;;;;;;28.87;29.23;102138.47;5063940;28;19955;-88
2022/06/14 12:20:14;;;;;;;;;;;;;;;29.29;28.12;102140.72;5082461;28;20470;-88
2022/06/14 12:22:47;;;;;;;;;;;;;;;29.54;26.04;102125.50;5069239;28;20057;-89
2022/06/14 12:28:23;;;;;;;;;;;;;;;29.54;27.23;102137.25;5061852;28;19962;-89
2022/06/14 12:30:50;;;;;;;;;;;;;;;29.56;25.96;102128.94;5063842;28;19917;-89
2022/06/14 12:33:30;;;;;;;;;;;;;;;29.61;27.54;102123.88;5069073;28;19912;-88
2022/06/14 12:35:58;;;;;;;;;;;;;;;29.76;26.60;102125.06;5058697;28;19924;-89
2022/06/14 12:38:26;;;;;;;;;;;;;;;29.69;26.77;102119.38;5063897;28;19927;-88
2022/06/14 12:40:51;;;;;;;;;;;;;;;29.75;26.70;102112.41;5062780;28;20152;-88
2022/06/14 12:43:23;;;;;;;;;;;;;;;29.52;26.76;102120.19;5059832;28;19912;-88
2022/06/14 12:45:48;;;;;;;;;;;;;;;29.44;27.47;102117.38;5069368;28;19912;-89
2022/06/14 12:48:19;;;;;;;;;;;;;;;29.62;27.49;102112.84;5065854;28;20655;-89
2022/06/14 12:50:48;;;;;;;;;;;;;;;29.91;27.50;102117.19;5067281;28;20356;-89
2022/06/14 12:53:20;;;;;;;;;;;;;;;29.98;27.21;102108.22;5065779;28;20385;-89
2022/06/14 12:55:47;;;;;;;;;;;;;;;30.09;26.88;102103.53;5067502;28;19912;-89
2022/06/14 12:58:23;;;;;;;;;;;;;;;30.13;26.51;102099.47;5066756;28;20735;-88
2022/06/14 13:00:48;;;;;;;;;;;;;;;29.85;27.05;102105.03;5061782;28;20010;-88
2022/06/14 13:03:20;;;;;;;;;;;;;;;29.90;27.22;102105.44;5067653;28;20007;-88